Nearby METAR Reports

 

CYYY - Mont Joli Airpor, Quebec, Canada
Distance from station: NE 44km
Mise à jour: 05/02/2023 15:00
couvert
couvert
 Wind from SO
Vent: SO 11 km/h
Température: -8°C
Facteur vent: -13°C
Point de rosée: -14°C
Humidité: 62%
Baromètre: 1012.2 hPa
Clouds: couvert
Visibility: 24 km
Cloud details: couvert 1890 m
2023/02/05 20:00 CYYY 052000Z 22006KT 15SM OVC062 M08/M14 A2989 RMK SC8 SLP128
CWZS - Amqui, Quebec, Canada
Distance from station: E 94km
Mise à jour: 08/07/2019 18:00
NOT Current

 Wind from SSO
Vent: SSO 7 km/h
Température: 15°C
Point de rosée: 13°C
Humidité: 88%
2019/07/08 22:00 CWZS 082200Z AUTO 20004KT 15/13 RMK AO1 SLP080 T01490131 50015
 
CWQO - Ile Bicquette, Quebec, Canada
Distance from station: ONO 15km
Mise à jour: 05/02/2023 15:00

 Wind from SO
Vent: SO 31 km/h
Température: -7°C
Facteur vent: -16°C
Point de rosée: -8°C
Humidité: 93%
2023/02/05 20:00 CWQO 052000Z AUTO 23017KT M07/M08 RMK AO1 PK WND 24023/1912 T10651082
CWNH - Riviere Du Loup, Quebec, Canada
Distance from station: SO 90km
Mise à jour: 05/02/2023 15:00

 Wind from SSO
Vent: SSO 9 km/h
Température: -7°C
Facteur vent: -12°C
Point de rosée: -10°C
Humidité: 79%
2023/02/05 20:00 CWNH 052000Z AUTO 21005KT M07/M10 RMK AO1 SOG 42 5011 SLP118 T10731104
 
CWAF - Ile Rouge(Maps), Quebec, Canada
Distance from station: OSO 70km
Mise à jour: 05/02/2023 15:00

 Wind from SSO
Vent: SSO 24 km/h
Température: -6°C
Facteur vent: -14°C
Point de rosée: -8°C
Humidité: 86%
2023/02/05 20:00 CWAF 052000Z AUTO 21013KT M06/M08 RMK AO1 PK WND 23020/1902 T10641075
CYBC - Baie Comeau Airp, Quebec, Canada
Distance from station: NNE 90km
Mise à jour: 05/02/2023 15:00
couvert
couvert
 Wind from NO
Vent: NO 6 km/h
Température: -10°C
Point de rosée: -13°C
Humidité: 79%
Baromètre: 1012.2 hPa
Clouds: couvert
Visibility: 14 km
Cloud details: couvert 1494 m
2023/02/05 20:00 CYBC 052000Z AUTO 32003KT 280V340 9SM OVC049 M10/M13 A2989 RMK SLP127